Time;durP1;ratioP1;P1;durP2;ratioP2;P2;SDS_P1;SDS_P2;PMS_P1;PMS_P2;Temp;Humidity;BMP_temperature;BMP_pressure;BME280_temperature;BME280_humidity;BME280_pressure;Samples;Min_cycle;Max_cycle;Signal;HPM_P1;HPM_P2
2024/03/02 00:00:22;;;;;;;4.45;3.15;;;;;;;;;;5091313;28;20024;-68
2024/03/02 00:02:51;;;;;;;2.45;2.00;;;;;;;;;;5092178;28;20326;-68
2024/03/02 00:05:18;;;;;;;9.38;2.75;;;;;;;;;;5071454;28;20408;-69
2024/03/02 00:07:46;;;;;;;2.13;1.98;;;;;;;;;;5094871;28;20028;-68
2024/03/02 00:10:15;;;;;;;2.90;2.65;;;;;;;;;;5089017;28;20542;-68
2024/03/02 00:12:42;;;;;;;4.93;1.90;;;;;;;;;;5089345;28;20504;-69
2024/03/02 00:15:28;;;;;;;2.88;2.58;;;;;;;;;;5102856;28;20072;-68
2024/03/02 00:17:55;;;;;;;16.60;4.32;;;;;;;;;;5081257;28;20039;-69
2024/03/02 00:20:27;;;;;;;4.25;2.08;;;;;;;;;;5092180;28;20548;-68
2024/03/02 00:22:58;;;;;;;5.30;1.92;;;;;;;;;;5088395;28;20031;-68
2024/03/02 00:25:25;;;;;;;1.70;1.60;;;;;;;;;;5074162;28;21434;-68
2024/03/02 00:27:51;;;;;;;2.17;1.83;;;;;;;;;;5077340;28;20583;-69
2024/03/02 00:30:37;;;;;;;2.05;1.60;;;;;;;;;;5075751;28;20043;-67
2024/03/02 00:33:07;;;;;;;3.58;2.03;;;;;;;;;;5093578;28;20470;-68
2024/03/02 00:35:33;;;;;;;2.58;2.38;;;;;;;;;;5097535;28;20035;-68
2024/03/02 00:38:04;;;;;;;9.45;2.22;;;;;;;;;;5093713;28;20103;-67
2024/03/02 00:40:30;;;;;;;4.68;1.50;;;;;;;;;;5082897;28;20040;-68
2024/03/02 00:42:56;;;;;;;2.70;1.58;;;;;;;;;;5095428;28;20028;-68
2024/03/02 00:45:24;;;;;;;1.58;1.48;;;;;;;;;;5076416;28;20519;-68
2024/03/02 00:47:51;;;;;;;1.75;1.65;;;;;;;;;;5088885;28;20091;-69
2024/03/02 00:50:17;;;;;;;2.50;1.88;;;;;;;;;;5096653;28;20035;-68
2024/03/02 00:52:43;;;;;;;2.45;2.28;;;;;;;;;;5098603;28;20032;-68
2024/03/02 00:55:09;;;;;;;1.60;1.50;;;;;;;;;;5107633;28;20451;-68
2024/03/02 00:57:36;;;;;;;6.80;2.17;;;;;;;;;;5092566;28;20469;-71
2024/03/02 01:00:03;;;;;;;1.85;1.75;;;;;;;;;;5102105;28;20097;-68
2024/03/02 01:02:29;;;;;;;2.28;2.08;;;;;;;;;;5086746;28;20444;-68
2024/03/02 01:04:55;;;;;;;1.30;1.30;;;;;;;;;;5096485;28;20100;-69
2024/03/02 01:07:21;;;;;;;2.00;1.80;;;;;;;;;;5097745;28;20032;-68
2024/03/02 01:09:47;;;;;;;2.30;2.10;;;;;;;;;;5096898;28;20070;-69
2024/03/02 01:12:14;;;;;;;1.95;1.85;;;;;;;;;;5083094;28;20043;-68
2024/03/02 01:14:40;;;;;;;3.03;1.70;;;;;;;;;;5096897;28;20024;-69
2024/03/02 01:17:06;;;;;;;2.13;1.83;;;;;;;;;;5081771;28;20477;-67
2024/03/02 01:19:32;;;;;;;3.65;2.03;;;;;;;;;;5086063;28;20046;-68
2024/03/02 01:21:58;;;;;;;3.85;2.60;;;;;;;;;;5096337;28;20358;-69
2024/03/02 01:24:24;;;;;;;4.75;1.73;;;;;;;;;;5082459;28;20027;-68
2024/03/02 01:26:51;;;;;;;2.20;2.00;;;;;;;;;;5092518;28;20541;-69
2024/03/02 01:29:17;;;;;;;2.33;2.13;;;;;;;;;;5090350;28;20106;-68
2024/03/02 01:31:43;;;;;;;2.78;1.85;;;;;;;;;;5095846;28;20028;-68
2024/03/02 01:34:09;;;;;;;6.38;2.22;;;;;;;;;;5093379;28;20487;-68
2024/03/02 01:36:36;;;;;;;2.10;1.70;;;;;;;;;;5076029;28;20083;-68
2024/03/02 01:39:02;;;;;;;6.03;2.33;;;;;;;;;;5093005;28;20441;-68
2024/03/02 01:41:28;;;;;;;6.18;2.25;;;;;;;;;;5099766;28;20026;-68
2024/03/02 01:43:55;;;;;;;3.00;2.00;;;;;;;;;;5100206;28;20027;-68
2024/03/02 01:46:21;;;;;;;1.58;1.48;;;;;;;;;;5082628;28;20032;-68
2024/03/02 01:48:47;;;;;;;5.63;2.53;;;;;;;;;;5099535;28;20051;-68
2024/03/02 01:51:13;;;;;;;2.20;1.58;;;;;;;;;;5095132;28;20493;-68
2024/03/02 01:53:40;;;;;;;9.15;2.95;;;;;;;;;;5095545;28;20031;-68
2024/03/02 01:56:08;;;;;;;3.70;2.45;;;;;;;;;;5088113;28;20053;-70
2024/03/02 01:58:34;;;;;;;4.85;1.88;;;;;;;;;;5075536;28;20028;-67
2024/03/02 02:01:00;;;;;;;5.40;2.20;;;;;;;;;;5094923;28;20039;-70
2024/03/02 02:03:27;;;;;;;1.27;1.27;;;;;;;;;;5104606;28;20058;-70
2024/03/02 02:05:55;;;;;;;2.65;1.90;;;;;;;;;;5097565;28;20023;-70
2024/03/02 02:08:21;;;;;;;4.72;1.63;;;;;;;;;;5086577;28;20028;-69
2024/03/02 02:10:47;;;;;;;5.80;2.22;;;;;;;;;;5096162;28;20031;-67
2024/03/02 02:13:14;;;;;;;13.05;2.20;;;;;;;;;;5087918;28;20120;-68
2024/03/02 02:15:40;;;;;;;9.05;2.63;;;;;;;;;;5093023;28;20020;-67
2024/03/02 02:18:06;;;;;;;9.60;2.47;;;;;;;;;;5095921;28;20487;-68
2024/03/02 02:20:32;;;;;;;2.08;1.88;;;;;;;;;;5085418;28;20032;-66
2024/03/02 02:22:59;;;;;;;1.33;1.33;;;;;;;;;;5101331;28;20042;-70
2024/03/02 02:25:26;;;;;;;1.92;1.75;;;;;;;;;;5090906;28;20074;-68
2024/03/02 02:27:52;;;;;;;6.45;2.42;;;;;;;;;;5096948;28;20024;-68
2024/03/02 02:30:26;;;;;;;2.38;2.28;;;;;;;;;;5095047;28;20031;-67
2024/03/02 02:32:53;;;;;;;4.78;1.67;;;;;;;;;;5105640;28;20261;-68
2024/03/02 02:35:19;;;;;;;1.30;1.30;;;;;;;;;;5084023;28;20034;-68
2024/03/02 02:37:49;;;;;;;1.92;1.83;;;;;;;;;;5098661;28;20127;-68
2024/03/02 02:40:15;;;;;;;1.50;1.40;;;;;;;;;;5094289;28;20451;-69
2024/03/02 02:42:41;;;;;;;1.65;1.55;;;;;;;;;;5081208;28;20552;-68
2024/03/02 02:45:08;;;;;;;5.78;1.83;;;;;;;;;;5086703;28;20261;-68
2024/03/02 02:47:37;;;;;;;2.17;2.05;;;;;;;;;;5098879;28;20023;-67
2024/03/02 02:50:06;;;;;;;3.80;2.05;;;;;;;;;;5096887;28;20039;-68
2024/03/02 02:52:33;;;;;;;3.70;1.55;;;;;;;;;;5104980;28;20032;-68
2024/03/02 02:54:59;;;;;;;4.82;2.35;;;;;;;;;;5084266;28;20081;-67
2024/03/02 02:57:25;;;;;;;2.65;1.92;;;;;;;;;;5092835;28;20924;-68
2024/03/02 02:59:52;;;;;;;3.03;2.28;;;;;;;;;;5099310;28;20386;-68
2024/03/02 03:02:18;;;;;;;4.72;2.33;;;;;;;;;;5076428;28;20130;-68
2024/03/02 03:04:44;;;;;;;3.38;1.80;;;;;;;;;;5096124;28;20043;-68
2024/03/02 03:07:10;;;;;;;11.23;2.97;;;;;;;;;;5097223;28;20043;-68
2024/03/02 03:09:38;;;;;;;2.08;1.92;;;;;;;;;;5101010;28;20292;-68
2024/03/02 03:12:05;;;;;;;1.75;1.65;;;;;;;;;;5083136;28;20401;-67
2024/03/02 03:14:31;;;;;;;6.95;2.10;;;;;;;;;;5078899;28;20514;-68
2024/03/02 03:16:57;;;;;;;1.80;1.70;;;;;;;;;;5098993;28;21187;-68
2024/03/02 03:19:23;;;;;;;7.72;1.88;;;;;;;;;;5096657;28;20032;-68
2024/03/02 03:21:50;;;;;;;2.20;1.70;;;;;;;;;;5098847;28;20123;-68
2024/03/02 03:24:16;;;;;;;14.43;2.58;;;;;;;;;;5078565;28;20032;-68
2024/03/02 03:26:42;;;;;;;1.90;1.80;;;;;;;;;;5100735;28;20126;-68
2024/03/02 03:29:08;;;;;;;2.28;2.08;;;;;;;;;;5097175;28;20460;-68
2024/03/02 03:31:34;;;;;;;1.92;1.83;;;;;;;;;;5096570;28;20031;-68
2024/03/02 03:34:00;;;;;;;6.65;2.63;;;;;;;;;;5086877;28;20038;-68
2024/03/02 03:36:26;;;;;;;1.35;1.35;;;;;;;;;;5094602;27;20051;-70
2024/03/02 03:38:52;;;;;;;7.70;2.20;;;;;;;;;;5092235;28;20146;-68
2024/03/02 03:41:19;;;;;;;2.20;1.83;;;;;;;;;;5098530;28;20098;-68
2024/03/02 03:43:45;;;;;;;2.00;1.90;;;;;;;;;;5098636;28;20028;-67
2024/03/02 03:46:11;;;;;;;1.80;1.70;;;;;;;;;;5098623;28;20031;-67
2024/03/02 03:48:37;;;;;;;1.83;1.70;;;;;;;;;;5093949;28;20023;-68
2024/03/02 03:51:06;;;;;;;1.75;1.65;;;;;;;;;;5081701;28;20102;-68
2024/03/02 03:53:32;;;;;;;1.77;1.67;;;;;;;;;;5099449;28;20594;-68
2024/03/02 03:55:58;;;;;;;2.30;2.10;;;;;;;;;;5088563;28;20645;-68
2024/03/02 03:58:24;;;;;;;2.58;2.38;;;;;;;;;;5096521;28;20016;-68
2024/03/02 04:00:50;;;;;;;2.58;1.38;;;;;;;;;;5094870;28;20023;-67
2024/03/02 04:03:16;;;;;;;1.75;1.65;;;;;;;;;;5096602;28;20043;-68
2024/03/02 04:05:43;;;;;;;6.13;1.98;;;;;;;;;;5098283;28;20119;-68
2024/03/02 04:08:09;;;;;;;6.03;1.73;;;;;;;;;;5098690;28;20100;-68
2024/03/02 04:10:35;;;;;;;13.82;3.53;;;;;;;;;;5081260;28;20038;-68
2024/03/02 04:13:01;;;;;;;1.60;1.50;;;;;;;;;;5097148;28;20028;-68
2024/03/02 04:15:27;;;;;;;1.63;1.55;;;;;;;;;;5102952;28;20655;-69
2024/03/02 04:17:53;;;;;;;3.78;2.05;;;;;;;;;;5096673;28;20039;-68
2024/03/02 04:20:19;;;;;;;4.22;1.70;;;;;;;;;;5105936;28;20098;-68
2024/03/02 04:22:46;;;;;;;2.30;2.20;;;;;;;;;;5077585;28;20040;-68
2024/03/02 04:25:12;;;;;;;2.50;1.95;;;;;;;;;;5092565;28;20063;-68
2024/03/02 04:27:38;;;;;;;1.70;1.60;;;;;;;;;;5107029;28;20058;-68
2024/03/02 04:30:05;;;;;;;1.77;1.67;;;;;;;;;;5104068;27;20126;-68
2024/03/02 04:32:31;;;;;;;1.75;1.60;;;;;;;;;;5102373;28;20476;-68
2024/03/02 04:34:58;;;;;;;3.20;1.60;;;;;;;;;;5104127;28;20309;-68
2024/03/02 04:37:24;;;;;;;3.85;1.75;;;;;;;;;;5092953;28;20064;-69
2024/03/02 04:39:50;;;;;;;3.35;2.03;;;;;;;;;;5103967;28;20030;-68
2024/03/02 04:42:16;;;;;;;6.13;1.48;;;;;;;;;;5094909;28;20038;-68
2024/03/02 04:44:42;;;;;;;8.88;2.03;;;;;;;;;;5097380;28;20043;-68
2024/03/02 04:47:08;;;;;;;5.50;2.58;;;;;;;;;;5094932;28;20430;-69
2024/03/02 04:49:35;;;;;;;1.15;1.15;;;;;;;;;;5095612;28;20536;-68
2024/03/02 04:52:01;;;;;;;3.42;3.03;;;;;;;;;;5094672;28;20590;-69
2024/03/02 04:54:27;;;;;;;1.63;1.52;;;;;;;;;;5096622;28;20442;-68
2024/03/02 04:56:53;;;;;;;9.88;1.65;;;;;;;;;;5102645;28;20028;-68
2024/03/02 04:59:20;;;;;;;2.83;1.48;;;;;;;;;;5101677;27;20028;-68
2024/03/02 05:01:47;;;;;;;1.48;1.48;;;;;;;;;;5086818;28;20403;-68
2024/03/02 05:04:13;;;;;;;2.15;2.05;;;;;;;;;;5106341;28;20023;-69
2024/03/02 05:06:43;;;;;;;1.45;1.35;;;;;;;;;;5095369;28;20497;-68
2024/03/02 05:09:09;;;;;;;16.20;2.97;;;;;;;;;;5094270;28;20499;-69
2024/03/02 05:14:05;;;;;;;2.25;1.70;;;;;;;;;;5100987;28;20024;-68
2024/03/02 05:16:35;;;;;;;4.88;2.10;;;;;;;;;;5097578;28;20110;-68
2024/03/02 05:19:01;;;;;;;1.77;1.60;;;;;;;;;;5093140;28;20123;-68
2024/03/02 05:21:27;;;;;;;4.28;1.98;;;;;;;;;;5103016;28;20122;-68
2024/03/02 05:23:53;;;;;;;4.40;2.05;;;;;;;;;;5082827;28;20051;-68
2024/03/02 05:26:19;;;;;;;2.70;1.67;;;;;;;;;;5099143;28;20778;-68
2024/03/02 05:28:45;;;;;;;2.45;2.15;;;;;;;;;;5097127;28;20039;-68
2024/03/02 05:31:11;;;;;;;2.08;1.98;;;;;;;;;;5080199;28;20104;-68
2024/03/02 05:33:41;;;;;;;1.40;1.40;;;;;;;;;;5095100;28;20035;-69
2024/03/02 05:36:07;;;;;;;1.95;1.73;;;;;;;;;;5071723;28;20130;-69
2024/03/02 05:38:35;;;;;;;6.10;1.73;;;;;;;;;;5096437;28;20030;-69
2024/03/02 05:41:01;;;;;;;2.58;1.58;;;;;;;;;;5092834;28;20040;-69
2024/03/02 05:43:28;;;;;;;2.45;2.17;;;;;;;;;;5076434;28;20084;-69
2024/03/02 05:45:54;;;;;;;2.50;2.40;;;;;;;;;;5099190;28;20445;-69
2024/03/02 05:48:20;;;;;;;2.10;1.83;;;;;;;;;;5079001;28;20438;-69
2024/03/02 05:50:47;;;;;;;3.90;2.58;;;;;;;;;;5091975;28;20028;-69
2024/03/02 05:53:13;;;;;;;2.13;1.83;;;;;;;;;;5089384;28;20435;-69
2024/03/02 05:55:39;;;;;;;1.63;1.60;;;;;;;;;;5075691;28;20549;-69
2024/03/02 05:58:32;;;;;;;3.63;2.22;;;;;;;;;;5099125;27;20514;-69
2024/03/02 06:00:58;;;;;;;2.30;2.20;;;;;;;;;;5074888;28;21596;-69
2024/03/02 06:03:24;;;;;;;1.30;1.30;;;;;;;;;;5098724;28;20085;-69
2024/03/02 06:05:51;;;;;;;1.92;1.83;;;;;;;;;;5083432;28;20548;-69
2024/03/02 06:08:17;;;;;;;1.70;1.60;;;;;;;;;;5100801;28;20055;-69
2024/03/02 06:10:44;;;;;;;3.22;2.53;;;;;;;;;;5072123;28;20028;-69
2024/03/02 06:13:10;;;;;;;1.50;1.50;;;;;;;;;;5092825;28;20049;-69
2024/03/02 06:15:36;;;;;;;2.50;2.30;;;;;;;;;;5098974;28;20019;-68
2024/03/02 06:18:07;;;;;;;2.72;1.98;;;;;;;;;;5099972;28;20032;-69
2024/03/02 06:20:33;;;;;;;1.35;1.35;;;;;;;;;;5097082;28;20398;-69
2024/03/02 06:22:59;;;;;;;4.20;2.95;;;;;;;;;;5077044;28;20493;-69
2024/03/02 06:25:26;;;;;;;1.25;1.25;;;;;;;;;;5100505;27;20035;-69
2024/03/02 06:27:52;;;;;;;2.75;1.83;;;;;;;;;;5090382;28;20277;-69
2024/03/02 06:30:18;;;;;;;2.42;2.22;;;;;;;;;;5106386;28;20106;-68
2024/03/02 06:32:45;;;;;;;4.57;1.98;;;;;;;;;;5085856;28;20024;-69
2024/03/02 06:35:12;;;;;;;1.67;1.58;;;;;;;;;;5097243;28;20028;-68
2024/03/02 06:37:42;;;;;;;1.27;1.27;;;;;;;;;;5091071;28;20460;-69
2024/03/02 06:40:08;;;;;;;2.72;2.33;;;;;;;;;;5078756;28;20039;-69
2024/03/02 06:42:35;;;;;;;4.85;1.70;;;;;;;;;;5094501;28;20031;-69
2024/03/02 06:45:02;;;;;;;10.50;1.88;;;;;;;;;;5096319;28;20049;-69
2024/03/02 06:47:28;;;;;;;3.75;2.20;;;;;;;;;;5098468;28;20107;-69
2024/03/02 06:49:54;;;;;;;2.55;1.70;;;;;;;;;;5093948;28;20038;-69
2024/03/02 06:52:20;;;;;;;1.85;1.80;;;;;;;;;;5096528;28;20024;-69
2024/03/02 06:54:47;;;;;;;2.50;2.10;;;;;;;;;;5099933;28;20033;-69
2024/03/02 06:57:13;;;;;;;2.47;2.28;;;;;;;;;;5103218;27;20041;-68
2024/03/02 06:59:39;;;;;;;3.03;2.35;;;;;;;;;;5080105;28;20035;-69
2024/03/02 07:02:05;;;;;;;1.48;1.42;;;;;;;;;;5094715;28;20046;-68
2024/03/02 07:04:31;;;;;;;3.08;2.40;;;;;;;;;;5096236;27;20653;-69
2024/03/02 07:06:57;;;;;;;1.88;1.70;;;;;;;;;;5098164;28;20059;-68
2024/03/02 07:09:24;;;;;;;3.65;1.88;;;;;;;;;;5099717;27;20517;-68
2024/03/02 07:11:50;;;;;;;1.75;1.65;;;;;;;;;;5095619;28;20385;-69
2024/03/02 07:14:16;;;;;;;2.45;2.25;;;;;;;;;;5096822;28;20028;-69
2024/03/02 07:16:43;;;;;;;1.85;1.60;;;;;;;;;;5097437;28;20047;-69
2024/03/02 07:19:09;;;;;;;2.85;1.85;;;;;;;;;;5093229;28;20480;-69
2024/03/02 07:21:35;;;;;;;9.63;3.17;;;;;;;;;;5093493;28;20028;-68
2024/03/02 07:24:05;;;;;;;3.50;1.98;;;;;;;;;;5079584;28;20061;-68
2024/03/02 07:26:32;;;;;;;3.25;2.50;;;;;;;;;;5099961;28;20511;-69
2024/03/02 07:29:01;;;;;;;2.60;2.20;;;;;;;;;;5095358;28;20192;-69
2024/03/02 07:31:27;;;;;;;1.50;1.50;;;;;;;;;;5089847;28;20481;-68
2024/03/02 07:33:53;;;;;;;6.97;1.98;;;;;;;;;;5101374;28;20024;-69
2024/03/02 07:36:20;;;;;;;1.73;1.63;;;;;;;;;;5105376;28;20031;-68
2024/03/02 07:38:46;;;;;;;1.48;1.42;;;;;;;;;;5104317;27;20024;-68
2024/03/02 07:41:12;;;;;;;1.30;1.30;;;;;;;;;;5096247;28;20019;-68
2024/03/02 07:43:39;;;;;;;2.00;1.77;;;;;;;;;;5101685;28;20421;-69
2024/03/02 07:46:05;;;;;;;1.67;1.58;;;;;;;;;;5070671;28;20051;-68
2024/03/02 07:48:32;;;;;;;4.57;2.28;;;;;;;;;;5096062;28;20032;-69
2024/03/02 07:50:58;;;;;;;2.00;1.90;;;;;;;;;;5096532;28;20036;-69
2024/03/02 07:53:24;;;;;;;1.83;1.73;;;;;;;;;;5096855;28;20313;-69
2024/03/02 07:55:50;;;;;;;1.40;1.40;;;;;;;;;;5090580;28;20465;-69
2024/03/02 07:58:19;;;;;;;1.73;1.63;;;;;;;;;;5092252;28;20020;-69
2024/03/02 08:00:45;;;;;;;2.03;1.83;;;;;;;;;;5092428;28;20062;-69
2024/03/02 08:03:11;;;;;;;2.45;1.98;;;;;;;;;;5103227;28;20028;-68
2024/03/02 08:05:38;;;;;;;1.75;1.40;;;;;;;;;;5088317;28;20588;-68
2024/03/02 08:08:04;;;;;;;1.55;1.48;;;;;;;;;;5090007;28;20032;-68
2024/03/02 08:10:30;;;;;;;1.65;1.50;;;;;;;;;;5081866;28;20039;-68
2024/03/02 08:12:57;;;;;;;1.33;1.33;;;;;;;;;;5079180;28;20028;-68
2024/03/02 08:15:23;;;;;;;1.48;1.48;;;;;;;;;;5075411;28;20028;-68
2024/03/02 08:17:50;;;;;;;3.97;2.03;;;;;;;;;;5088404;28;20423;-68
2024/03/02 08:20:16;;;;;;;1.50;1.42;;;;;;;;;;5091908;28;20028;-68
2024/03/02 08:22:49;;;;;;;1.30;1.30;;;;;;;;;;5076537;28;20315;-68
2024/03/02 08:25:15;;;;;;;1.20;1.20;;;;;;;;;;5093322;28;20102;-68
2024/03/02 08:27:42;;;;;;;3.03;1.50;;;;;;;;;;5077900;28;20084;-68
2024/03/02 08:30:10;;;;;;;1.35;1.33;;;;;;;;;;5095077;28;20051;-68
2024/03/02 08:32:37;;;;;;;3.13;2.00;;;;;;;;;;5083540;28;20183;-67
2024/03/02 08:35:04;;;;;;;2.30;2.08;;;;;;;;;;5097195;28;20038;-68
2024/03/02 08:37:30;;;;;;;1.77;1.67;;;;;;;;;;5090546;28;20508;-68
2024/03/02 08:39:57;;;;;;;1.35;1.27;;;;;;;;;;5077151;28;20398;-69
2024/03/02 08:42:23;;;;;;;2.05;1.95;;;;;;;;;;5091973;28;20028;-68
2024/03/02 08:44:50;;;;;;;1.10;1.10;;;;;;;;;;5082496;28;20024;-69
2024/03/02 08:47:16;;;;;;;1.33;1.33;;;;;;;;;;5078077;28;20024;-69
2024/03/02 08:49:42;;;;;;;1.67;1.58;;;;;;;;;;5096766;28;20096;-69
2024/03/02 08:52:08;;;;;;;5.68;1.45;;;;;;;;;;5096192;28;20027;-68
2024/03/02 08:54:35;;;;;;;25.48;1.90;;;;;;;;;;5093480;28;20035;-69
2024/03/02 08:57:02;;;;;;;1.35;1.35;;;;;;;;;;5090481;28;20103;-69
2024/03/02 08:59:28;;;;;;;2.30;1.63;;;;;;;;;;5097949;27;20028;-70
2024/03/02 09:01:54;;;;;;;1.33;1.33;;;;;;;;;;5101626;28;20135;-70
2024/03/02 09:04:20;;;;;;;1.60;1.50;;;;;;;;;;5097604;28;20157;-69
2024/03/02 09:06:46;;;;;;;12.30;1.65;;;;;;;;;;5093186;28;20512;-69
2024/03/02 09:09:13;;;;;;;1.75;1.60;;;;;;;;;;5097598;28;20028;-70
2024/03/02 09:11:39;;;;;;;4.53;1.90;;;;;;;;;;5079908;28;20168;-69
2024/03/02 09:14:05;;;;;;;1.48;1.48;;;;;;;;;;5098377;27;20032;-69
2024/03/02 09:16:31;;;;;;;3.55;2.00;;;;;;;;;;5096557;27;20027;-70
2024/03/02 09:18:57;;;;;;;1.40;1.40;;;;;;;;;;5096626;27;20266;-69
2024/03/02 09:21:25;;;;;;;5.03;2.00;;;;;;;;;;5069138;28;20489;-69
2024/03/02 09:23:51;;;;;;;2.17;1.92;;;;;;;;;;5079365;28;20024;-70
2024/03/02 09:26:19;;;;;;;1.70;1.60;;;;;;;;;;5093956;28;20047;-69
2024/03/02 09:28:46;;;;;;;6.28;1.73;;;;;;;;;;5099200;28;20059;-69
2024/03/02 09:31:12;;;;;;;6.45;1.52;;;;;;;;;;5095939;28;20036;-69
2024/03/02 09:33:39;;;;;;;3.25;2.08;;;;;;;;;;5102188;27;20077;-69
2024/03/02 09:36:05;;;;;;;1.60;1.35;;;;;;;;;;5075482;28;20047;-68
2024/03/02 09:38:34;;;;;;;2.72;1.95;;;;;;;;;;5102567;28;20095;-69
2024/03/02 09:41:01;;;;;;;2.33;1.70;;;;;;;;;;5077060;28;20032;-70
2024/03/02 09:43:27;;;;;;;5.75;1.85;;;;;;;;;;5081606;28;20031;-70
2024/03/02 09:45:54;;;;;;;1.33;1.33;;;;;;;;;;5093602;28;20024;-68
2024/03/02 09:48:20;;;;;;;2.95;1.65;;;;;;;;;;5093472;28;20119;-69
2024/03/02 09:50:47;;;;;;;2.00;1.70;;;;;;;;;;5098002;28;20038;-69
2024/03/02 09:53:14;;;;;;;3.25;1.70;;;;;;;;;;5100102;27;20023;-69
2024/03/02 09:55:43;;;;;;;1.30;1.30;;;;;;;;;;5100924;28;20469;-69
2024/03/02 09:58:10;;;;;;;3.13;1.45;;;;;;;;;;5092000;27;20454;-69
2024/03/02 10:00:36;;;;;;;2.42;1.83;;;;;;;;;;5093427;27;20027;-69
2024/03/02 10:03:02;;;;;;;2.80;1.67;;;;;;;;;;5095014;27;20032;-69
2024/03/02 10:05:28;;;;;;;2.50;1.40;;;;;;;;;;5095676;27;20020;-69
2024/03/02 10:08:03;;;;;;;1.80;1.70;;;;;;;;;;5097860;27;20485;-69
2024/03/02 10:10:39;;;;;;;1.75;1.65;;;;;;;;;;5080451;28;20031;-70
2024/03/02 10:13:06;;;;;;;3.80;1.77;;;;;;;;;;5091971;27;20028;-70
2024/03/02 10:15:33;;;;;;;1.38;1.25;;;;;;;;;;5094230;28;20408;-69
2024/03/02 10:17:59;;;;;;;6.40;1.67;;;;;;;;;;5095582;27;20030;-70
2024/03/02 10:20:29;;;;;;;3.33;1.48;;;;;;;;;;5080627;28;20051;-69
2024/03/02 10:22:55;;;;;;;2.15;2.05;;;;;;;;;;5099475;28;20023;-69
2024/03/02 10:25:31;;;;;;;4.47;1.52;;;;;;;;;;5095513;28;20491;-70
2024/03/02 10:28:01;;;;;;;1.42;1.38;;;;;;;;;;5090556;28;20035;-69
2024/03/02 10:30:27;;;;;;;1.60;1.50;;;;;;;;;;5091686;28;20058;-70
2024/03/02 10:32:55;;;;;;;1.40;1.38;;;;;;;;;;5100903;28;20027;-69
2024/03/02 10:35:22;;;;;;;1.50;1.50;;;;;;;;;;5100882;27;20031;-69
2024/03/02 10:37:49;;;;;;;2.00;1.75;;;;;;;;;;5096442;27;20036;-69
2024/03/02 10:40:15;;;;;;;1.90;1.50;;;;;;;;;;5102714;28;20027;-69
2024/03/02 10:42:42;;;;;;;3.60;1.95;;;;;;;;;;5077806;28;20157;-70
2024/03/02 10:45:12;;;;;;;2.28;1.50;;;;;;;;;;5097381;28;20019;-69
2024/03/02 10:47:39;;;;;;;2.97;1.63;;;;;;;;;;5064537;28;20033;-70
2024/03/02 10:50:08;;;;;;;3.50;1.92;;;;;;;;;;5087038;28;21476;-70
2024/03/02 10:52:37;;;;;;;1.48;1.38;;;;;;;;;;5097428;28;20028;-69
2024/03/02 10:55:09;;;;;;;1.95;1.75;;;;;;;;;;5074573;28;20039;-68
2024/03/02 10:57:52;;;;;;;7.55;1.90;;;;;;;;;;5097819;28;20031;-69
2024/03/02 11:00:24;;;;;;;1.77;1.67;;;;;;;;;;5096824;28;20038;-69
2024/03/02 11:02:56;;;;;;;1.38;1.27;;;;;;;;;;5097216;28;20027;-70
2024/03/02 11:05:29;;;;;;;1.73;1.63;;;;;;;;;;5092493;28;20412;-69
2024/03/02 11:07:59;;;;;;;2.85;1.85;;;;;;;;;;5089569;27;20085;-68
2024/03/02 11:10:26;;;;;;;1.70;1.60;;;;;;;;;;5088557;28;20028;-66
2024/03/02 11:12:58;;;;;;;2.63;1.60;;;;;;;;;;5099942;28;20038;-66
2024/03/02 11:15:26;;;;;;;4.25;1.60;;;;;;;;;;5094686;28;20032;-66
2024/03/02 11:17:53;;;;;;;4.22;2.20;;;;;;;;;;5099853;28;20024;-65
2024/03/02 11:20:20;;;;;;;1.65;1.55;;;;;;;;;;5105387;28;20024;-65
2024/03/02 11:22:46;;;;;;;1.30;1.30;;;;;;;;;;5102696;27;20027;-65
2024/03/02 11:25:26;;;;;;;2.97;1.60;;;;;;;;;;5103885;28;20030;-64
2024/03/02 11:27:55;;;;;;;1.83;1.73;;;;;;;;;;5081726;28;20038;-65
2024/03/02 11:30:33;;;;;;;7.75;1.95;;;;;;;;;;5088007;28;20031;-65
2024/03/02 11:33:00;;;;;;;1.73;1.52;;;;;;;;;;5099271;28;20106;-65
2024/03/02 11:35:29;;;;;;;3.70;1.63;;;;;;;;;;5103494;28;20028;-65
2024/03/02 11:37:58;;;;;;;1.60;1.50;;;;;;;;;;5101966;28;20107;-67
2024/03/02 11:40:31;;;;;;;1.60;1.50;;;;;;;;;;5087631;28;20019;-68
2024/03/02 11:43:00;;;;;;;1.25;1.25;;;;;;;;;;5108019;28;20031;-68
2024/03/02 11:45:31;;;;;;;3.38;2.00;;;;;;;;;;5083877;28;20054;-68
2024/03/02 11:48:01;;;;;;;1.80;1.70;;;;;;;;;;5106223;28;20532;-66
2024/03/02 11:50:33;;;;;;;1.58;1.52;;;;;;;;;;5083402;28;20028;-66
2024/03/02 11:52:59;;;;;;;5.82;1.58;;;;;;;;;;5103958;28;20536;-65
2024/03/02 11:55:29;;;;;;;1.55;1.45;;;;;;;;;;5100764;28;20063;-67
2024/03/02 11:57:55;;;;;;;1.63;1.48;;;;;;;;;;5099278;28;20028;-66
2024/03/02 12:00:21;;;;;;;1.23;1.23;;;;;;;;;;5099930;28;20020;-66
2024/03/02 12:03:02;;;;;;;1.02;1.02;;;;;;;;;;5094103;28;20433;-70
2024/03/02 12:05:28;;;;;;;1.00;1.00;;;;;;;;;;5096978;28;20032;-66
2024/03/02 12:07:58;;;;;;;1.50;1.40;;;;;;;;;;5102394;28;20027;-65
2024/03/02 12:10:25;;;;;;;1.33;1.33;;;;;;;;;;5100163;28;20051;-68
2024/03/02 12:12:57;;;;;;;1.60;1.55;;;;;;;;;;5100204;28;20681;-68
2024/03/02 12:15:25;;;;;;;1.40;1.40;;;;;;;;;;5081117;28;20024;-69
2024/03/02 12:17:53;;;;;;;2.28;1.33;;;;;;;;;;5097433;28;20028;-69
2024/03/02 12:20:19;;;;;;;1.95;1.35;;;;;;;;;;5093991;28;20028;-68
2024/03/02 12:22:46;;;;;;;1.20;1.20;;;;;;;;;;5081665;28;20035;-68
2024/03/02 12:25:12;;;;;;;1.30;1.30;;;;;;;;;;5098723;28;20396;-67
2024/03/02 12:27:39;;;;;;;1.15;1.15;;;;;;;;;;5095834;28;20027;-68
2024/03/02 12:30:08;;;;;;;1.80;1.70;;;;;;;;;;5100014;28;20400;-68
2024/03/02 12:32:34;;;;;;;1.60;1.50;;;;;;;;;;5099746;28;20059;-68
2024/03/02 12:35:00;;;;;;;1.20;1.20;;;;;;;;;;5098676;28;20436;-69
2024/03/02 12:37:28;;;;;;;1.85;1.75;;;;;;;;;;5103944;28;21024;-68
2024/03/02 12:39:54;;;;;;;3.38;2.10;;;;;;;;;;5102271;28;20026;-68
2024/03/02 12:42:20;;;;;;;1.55;1.45;;;;;;;;;;5104345;28;20058;-69
2024/03/02 12:44:47;;;;;;;3.28;1.67;;;;;;;;;;5083786;27;20499;-69
2024/03/02 12:47:13;;;;;;;1.48;1.40;;;;;;;;;;5076785;28;20020;-70
2024/03/02 12:49:41;;;;;;;1.50;1.40;;;;;;;;;;5088409;28;20433;-69
2024/03/02 12:52:07;;;;;;;1.48;1.40;;;;;;;;;;5101087;28;20111;-69
2024/03/02 12:54:34;;;;;;;1.63;1.52;;;;;;;;;;5099115;28;20546;-69
2024/03/02 12:57:00;;;;;;;1.80;1.70;;;;;;;;;;5099637;28;20088;-69
2024/03/02 12:59:26;;;;;;;1.30;1.30;;;;;;;;;;5101371;27;20027;-71
2024/03/02 13:01:53;;;;;;;3.30;2.20;;;;;;;;;;5096070;28;20231;-69
2024/03/02 13:04:23;;;;;;;2.20;1.95;;;;;;;;;;5099956;28;20015;-70
2024/03/02 13:06:51;;;;;;;6.80;3.67;;;;;;;;;;5092349;28;20012;-70
2024/03/02 13:09:17;;;;;;;2.10;1.90;;;;;;;;;;5085301;28;20052;-71
2024/03/02 13:11:43;;;;;;;3.00;1.40;;;;;;;;;;5097734;28;20420;-70
2024/03/02 13:14:11;;;;;;;1.60;1.50;;;;;;;;;;5076361;28;20032;-70
2024/03/02 13:16:41;;;;;;;1.80;1.70;;;;;;;;;;5101315;28;20032;-70
2024/03/02 13:19:10;;;;;;;3.33;1.80;;;;;;;;;;5100958;28;20034;-70
2024/03/02 13:21:36;;;;;;;1.67;1.58;;;;;;;;;;5091044;28;20035;-70
2024/03/02 13:24:03;;;;;;;3.28;2.33;;;;;;;;;;5093023;28;20027;-70
2024/03/02 13:26:29;;;;;;;2.53;1.80;;;;;;;;;;5096266;28;20035;-69
2024/03/02 13:28:55;;;;;;;2.20;2.00;;;;;;;;;;5093074;28;20415;-69
2024/03/02 13:31:22;;;;;;;2.70;1.73;;;;;;;;;;5093826;28;20035;-69
2024/03/02 13:33:48;;;;;;;1.67;1.58;;;;;;;;;;5102013;28;20748;-69
2024/03/02 13:36:14;;;;;;;2.00;1.67;;;;;;;;;;5093047;28;20226;-67
2024/03/02 13:38:40;;;;;;;1.88;1.73;;;;;;;;;;5094740;28;20123;-69
2024/03/02 13:41:07;;;;;;;1.80;1.67;;;;;;;;;;5099650;27;20755;-65
2024/03/02 13:43:34;;;;;;;1.60;1.50;;;;;;;;;;5102059;28;20027;-65
2024/03/02 13:46:00;;;;;;;2.65;1.70;;;;;;;;;;5095826;27;20055;-65
2024/03/02 13:48:27;;;;;;;2.30;1.23;;;;;;;;;;5098915;28;20037;-64
2024/03/02 13:50:53;;;;;;;1.60;1.50;;;;;;;;;;5102321;27;20026;-65
2024/03/02 13:53:19;;;;;;;2.70;1.80;;;;;;;;;;5099328;28;20056;-64
2024/03/02 13:55:46;;;;;;;2.25;2.08;;;;;;;;;;5078639;28;20227;-66
2024/03/02 13:58:12;;;;;;;1.67;1.58;;;;;;;;;;5095765;28;20035;-65
2024/03/02 14:00:39;;;;;;;1.77;1.20;;;;;;;;;;5096539;28;20410;-65
2024/03/02 14:03:07;;;;;;;2.97;1.70;;;;;;;;;;5102354;28;20080;-65
2024/03/02 14:05:33;;;;;;;2.08;1.35;;;;;;;;;;5102052;28;20392;-65
2024/03/02 14:08:00;;;;;;;2.13;1.40;;;;;;;;;;5081368;28;20028;-65
2024/03/02 14:10:29;;;;;;;1.60;1.38;;;;;;;;;;5099749;28;20546;-64
2024/03/02 14:12:55;;;;;;;1.60;1.45;;;;;;;;;;5084893;28;20054;-64
2024/03/02 14:15:22;;;;;;;2.75;1.73;;;;;;;;;;5101887;27;20095;-64
2024/03/02 14:17:48;;;;;;;1.58;1.48;;;;;;;;;;5101309;28;20026;-64
2024/03/02 14:20:14;;;;;;;19.48;3.13;;;;;;;;;;5093305;28;20028;-64
2024/03/02 14:22:40;;;;;;;7.75;2.83;;;;;;;;;;5081852;28;20381;-65
2024/03/02 14:25:06;;;;;;;8.00;2.67;;;;;;;;;;5097192;27;20451;-64
2024/03/02 14:27:33;;;;;;;26.40;4.43;;;;;;;;;;5098170;28;20028;-64
2024/03/02 14:29:59;;;;;;;40.83;6.85;;;;;;;;;;5096870;28;20036;-64
2024/03/02 14:32:25;;;;;;;12.25;4.00;;;;;;;;;;5095250;28;20039;-64
2024/03/02 14:34:52;;;;;;;14.02;3.05;;;;;;;;;;5094913;28;20071;-64
2024/03/02 14:37:18;;;;;;;11.07;3.35;;;;;;;;;;5100521;27;20128;-64
2024/03/02 14:39:44;;;;;;;4.63;1.88;;;;;;;;;;5095157;27;20858;-64
2024/03/02 14:42:10;;;;;;;7.22;2.05;;;;;;;;;;5096977;27;20501;-64
2024/03/02 14:44:36;;;;;;;1.73;1.63;;;;;;;;;;5094897;28;20039;-64